Time;durP1;ratioP1;P1;durP2;ratioP2;P2;SDS_P1;SDS_P2;PMS_P1;PMS_P2;Temp;Humidity;BMP_temperature;BMP_pressure;BME280_temperature;BME280_humidity;BME280_pressure;Samples;Min_cycle;Max_cycle;Signal;HPM_P1;HPM_P2
2021/03/24 00:01:07;;;;;;;;;;;;;;;10.48;42.62;101720.50;5058358;28;19931;-76
2021/03/24 00:03:35;;;;;;;;;;;;;;;10.46;42.79;101713.47;5061529;28;20007;-76
2021/03/24 00:06:03;;;;;;;;;;;;;;;10.45;43.21;101718.78;5072828;28;19937;-76
2021/03/24 00:08:34;;;;;;;;;;;;;;;10.43;43.41;101718.81;5049247;28;20016;-77
2021/03/24 00:11:18;;;;;;;;;;;;;;;10.42;43.53;101711.75;5082289;28;19929;-76
2021/03/24 00:13:48;;;;;;;;;;;;;;;10.41;43.73;101719.72;5074031;28;19931;-77
2021/03/24 00:16:22;;;;;;;;;;;;;;;10.39;43.54;101717.09;5052269;28;19999;-76
2021/03/24 00:18:50;;;;;;;;;;;;;;;10.38;43.62;101709.16;5064740;28;19935;-76
2021/03/24 00:21:17;;;;;;;;;;;;;;;10.36;44.32;101710.94;5059233;28;19928;-76
2021/03/24 00:23:45;;;;;;;;;;;;;;;10.34;44.31;101712.72;5055288;28;19932;-76
2021/03/24 00:26:12;;;;;;;;;;;;;;;10.32;44.47;101704.78;5069198;28;19967;-76
2021/03/24 00:28:40;;;;;;;;;;;;;;;10.31;44.66;101708.34;5062102;28;19939;-75
2021/03/24 00:31:07;;;;;;;;;;;;;;;10.30;44.97;101709.22;5047955;28;19978;-77
2021/03/24 00:33:35;;;;;;;;;;;;;;;10.29;45.21;101716.25;5091432;28;19929;-75
2021/03/24 00:36:02;;;;;;;;;;;;;;;10.28;44.79;101713.63;5057326;28;19955;-76
2021/03/24 00:38:34;;;;;;;;;;;;;;;10.28;45.47;101716.28;5051199;28;19971;-76
2021/03/24 00:41:01;;;;;;;;;;;;;;;10.27;45.54;101707.47;5053700;28;19925;-75
2021/03/24 00:43:31;;;;;;;;;;;;;;;10.25;45.72;101700.47;5051079;28;20081;-75
2021/03/24 00:45:58;;;;;;;;;;;;;;;10.24;45.49;101701.34;5081988;28;19960;-75
2021/03/24 00:48:29;;;;;;;;;;;;;;;10.21;45.64;101704.91;5050235;28;20407;-76
2021/03/24 00:51:01;;;;;;;;;;;;;;;10.21;46.06;101706.69;5054308;28;20004;-75
2021/03/24 00:53:42;;;;;;;;;;;;;;;10.03;45.55;101692.72;5053176;28;19924;-77
2021/03/24 00:56:18;;;;;;;;;;;;;;;10.19;45.93;101708.44;5057047;28;19971;-75
2021/03/24 00:58:55;;;;;;;;;;;;;;;10.18;46.42;101706.69;5055126;28;20019;-75
2021/03/24 01:01:22;;;;;;;;;;;;;;;10.16;46.41;101713.78;5053631;28;19937;-75
2021/03/24 01:03:49;;;;;;;;;;;;;;;10.15;46.26;101704.94;5073790;28;19929;-76
2021/03/24 01:06:18;;;;;;;;;;;;;;;10.14;46.66;101706.72;5052975;28;19935;-77
2021/03/24 01:08:55;;;;;;;;;;;;;;;10.14;46.54;101705.88;5052145;28;19954;-75
2021/03/24 01:11:35;;;;;;;;;;;;;;;10.12;46.52;101699.72;5070788;28;19925;-75
2021/03/24 01:14:13;;;;;;;;;;;;;;;10.10;46.78;101696.22;5053117;28;19943;-75
2021/03/24 01:16:40;;;;;;;;;;;;;;;10.08;47.27;101693.56;5060979;28;19932;-75
2021/03/24 01:19:16;;;;;;;;;;;;;;;10.09;47.19;101699.75;5047067;28;19928;-76
2021/03/24 01:21:52;;;;;;;;;;;;;;;10.07;47.23;101694.47;5087361;28;19929;-76
2021/03/24 01:24:22;;;;;;;;;;;;;;;10.07;47.27;101698.88;5057910;28;19925;-76
2021/03/24 01:26:50;;;;;;;;;;;;;;;10.05;46.89;101690.97;5055344;28;19967;-75
2021/03/24 01:29:18;;;;;;;;;;;;;;;10.04;47.29;101685.69;5071764;28;19939;-76
2021/03/24 01:31:47;;;;;;;;;;;;;;;10.02;47.23;101680.44;5053817;28;19937;-76
2021/03/24 01:34:20;;;;;;;;;;;;;;;10.01;47.66;101689.25;5052485;28;19924;-76
2021/03/24 01:36:48;;;;;;;;;;;;;;;10.01;47.34;101685.72;5086168;28;19930;-75
2021/03/24 01:39:28;;;;;;;;;;;;;;;;;;;;;
2021/03/24 01:42:02;;;;;;;;;;;;;;;9.98;47.32;101686.66;5050130;28;19929;-77
2021/03/24 01:44:32;;;;;;;;;;;;;;;9.97;47.54;101675.19;5054388;28;19935;-77
2021/03/24 01:47:12;;;;;;;;;;;;;;;9.95;47.92;101686.66;5055907;28;19924;-77
2021/03/24 01:49:47;;;;;;;;;;;;;;;9.94;47.70;101688.44;5049324;28;19926;-76
2021/03/24 01:52:20;;;;;;;;;;;;;;;9.94;47.68;101685.78;5088031;28;19928;-75
2021/03/24 01:54:50;;;;;;;;;;;;;;;9.92;47.62;101682.28;5057494;28;20019;-76
2021/03/24 01:57:19;;;;;;;;;;;;;;;9.91;48.04;101683.16;5055706;28;19932;-76
2021/03/24 01:59:47;;;;;;;;;;;;;;;9.91;48.20;101685.81;5064183;28;19944;-75
2021/03/24 02:02:17;;;;;;;;;;;;;;;9.97;46.89;101684.88;5062202;28;19932;-75
2021/03/24 02:04:47;;;;;;;;;;;;;;;10.04;46.23;101683.91;5085077;28;19968;-76
2021/03/24 02:07:24;;;;;;;;;;;;;;;10.09;44.25;101684.75;5074929;28;19939;-76
2021/03/24 02:10:02;;;;;;;;;;;;;;;10.12;43.36;101687.38;5051234;28;19929;-77
2021/03/24 02:12:39;;;;;;;;;;;;;;;10.17;42.63;101689.09;5059672;28;20017;-76
2021/03/24 02:15:18;;;;;;;;;;;;;;;10.20;42.09;101694.34;5067507;28;19928;-76
2021/03/24 02:17:48;;;;;;;;;;;;;;;10.22;41.62;101696.06;5067418;28;19968;-75
2021/03/24 02:20:19;;;;;;;;;;;;;;;10.26;40.65;101695.16;5058694;28;19940;-76
2021/03/24 02:22:50;;;;;;;;;;;;;;;10.28;40.47;101703.97;5070521;28;19928;-75
2021/03/24 02:25:22;;;;;;;;;;;;;;;10.31;39.80;101697.75;5060821;28;19947;-75
2021/03/24 02:27:52;;;;;;;;;;;;;;;10.32;39.25;101698.63;5051102;28;19965;-75
2021/03/24 02:30:22;;;;;;;;;;;;;;;10.34;39.28;101699.50;5057339;28;19944;-75
2021/03/24 02:32:52;;;;;;;;;;;;;;;10.26;39.48;101700.44;5084060;28;19932;-76
2021/03/24 02:35:24;;;;;;;;;;;;;;;10.20;40.28;101697.84;5092387;28;19940;-75
2021/03/24 02:37:51;;;;;;;;;;;;;;;10.14;40.94;101698.81;5055575;28;19948;-75
2021/03/24 02:40:22;;;;;;;;;;;;;;;10.10;41.52;101699.72;5057104;28;19937;-75
2021/03/24 02:42:51;;;;;;;;;;;;;;;10.06;41.82;101695.38;5092030;28;20984;-75
2021/03/24 02:45:21;;;;;;;;;;;;;;;10.04;42.09;101699.78;5056269;28;20015;-75
2021/03/24 02:47:49;;;;;;;;;;;;;;;10.01;42.19;101691.91;5062182;28;20311;-76
2021/03/24 02:50:18;;;;;;;;;;;;;;;9.96;42.62;101694.56;5078610;28;19929;-75
2021/03/24 02:52:45;;;;;;;;;;;;;;;9.94;42.85;101698.13;5089129;28;20002;-74
2021/03/24 02:55:14;;;;;;;;;;;;;;;9.92;43.09;101691.97;5060705;28;19933;-75
2021/03/24 02:57:42;;;;;;;;;;;;;;;9.90;43.42;101694.66;5053404;28;19928;-74
2021/03/24 03:00:12;;;;;;;;;;;;;;;9.90;43.36;101692.00;5049534;28;20000;-74
2021/03/24 03:02:43;;;;;;;;;;;;;;;9.88;43.89;101691.13;5059252;28;19932;-75
2021/03/24 03:05:14;;;;;;;;;;;;;;;9.87;43.81;101694.66;5067974;28;19925;-76
2021/03/24 03:07:48;;;;;;;;;;;;;;;9.84;44.39;101689.41;5067020;28;19932;-76
2021/03/24 03:10:19;;;;;;;;;;;;;;;9.83;44.35;101692.94;5050041;28;19964;-77
2021/03/24 03:12:52;;;;;;;;;;;;;;;9.82;44.56;101693.81;5046015;28;19928;-74
2021/03/24 03:15:23;;;;;;;;;;;;;;;9.81;44.32;101686.81;5069881;28;19999;-75
2021/03/24 03:17:53;;;;;;;;;;;;;;;9.79;44.74;101696.50;5084072;28;20875;-75
2021/03/24 03:20:22;;;;;;;;;;;;;;;9.79;44.71;101696.50;5057396;28;19983;-75
2021/03/24 03:22:51;;;;;;;;;;;;;;;9.78;45.09;101694.75;5073841;28;19939;-75
2021/03/24 03:25:21;;;;;;;;;;;;;;;9.76;45.09;101692.13;5048324;28;19996;-74
2021/03/24 03:27:50;;;;;;;;;;;;;;;9.75;45.49;101681.56;5056351;28;19933;-74
2021/03/24 03:30:18;;;;;;;;;;;;;;;9.74;45.15;101687.75;5054202;28;19928;-75
2021/03/24 03:32:46;;;;;;;;;;;;;;;9.72;45.47;101684.25;5054593;28;19935;-76
2021/03/24 03:35:16;;;;;;;;;;;;;;;9.71;45.48;101678.06;5054479;28;19967;-76
2021/03/24 03:37:43;;;;;;;;;;;;;;;9.70;45.42;101684.25;5051397;28;19964;-75
2021/03/24 03:40:13;;;;;;;;;;;;;;;9.67;45.51;101684.28;5084377;28;19929;-74
2021/03/24 03:42:43;;;;;;;;;;;;;;;9.67;45.77;101686.91;5050207;28;19964;-75
2021/03/24 03:45:12;;;;;;;;;;;;;;;9.67;45.79;101686.06;5053287;28;20087;-75
2021/03/24 03:47:39;;;;;;;;;;;;;;;9.66;45.35;101693.09;5057335;28;19924;-74
2021/03/24 03:50:07;;;;;;;;;;;;;;;9.65;45.49;101688.69;5056196;28;19947;-75
2021/03/24 03:52:45;;;;;;;;;;;;;;;9.66;46.12;101687.78;5057924;28;19933;-75
2021/03/24 03:55:19;;;;;;;;;;;;;;;9.62;45.82;101676.38;5080408;28;20309;-76
2021/03/24 03:57:50;;;;;;;;;;;;;;;9.60;46.27;101682.56;5084868;28;19925;-75
2021/03/24 04:00:20;;;;;;;;;;;;;;;9.60;46.58;101677.28;5050931;28;20800;-75
2021/03/24 04:02:51;;;;;;;;;;;;;;;9.60;46.24;101674.63;5055050;28;19959;-76
2021/03/24 04:05:19;;;;;;;;;;;;;;;9.58;45.89;101685.22;5088487;28;19950;-76
2021/03/24 04:07:49;;;;;;;;;;;;;;;9.58;46.15;101677.28;5081335;28;19972;-76
2021/03/24 04:10:17;;;;;;;;;;;;;;;9.56;46.58;101678.19;5054214;28;19928;-76
2021/03/24 04:12:45;;;;;;;;;;;;;;;9.54;46.42;101665.00;5057294;28;19929;-75
2021/03/24 04:15:14;;;;;;;;;;;;;;;9.54;46.84;101680.84;5054996;28;19939;-75
2021/03/24 04:17:44;;;;;;;;;;;;;;;9.53;46.27;101681.72;5049436;28;19924;-76
2021/03/24 04:20:12;;;;;;;;;;;;;;;9.52;46.75;101672.09;5067040;28;19933;-75
2021/03/24 04:22:40;;;;;;;;;;;;;;;9.51;46.78;101675.59;5066266;28;19925;-74
2021/03/24 04:25:15;;;;;;;;;;;;;;;9.51;46.96;101674.72;5052463;28;20140;-75
2021/03/24 04:27:45;;;;;;;;;;;;;;;9.51;47.20;101674.72;5050460;28;19925;-77
2021/03/24 04:30:14;;;;;;;;;;;;;;;9.49;46.81;101679.16;5046208;28;19928;-76
2021/03/24 04:32:42;;;;;;;;;;;;;;;9.47;46.53;101671.25;5047738;28;19928;-75
2021/03/24 04:35:14;;;;;;;;;;;;;;;9.46;46.77;101669.47;5053400;28;19939;-76
2021/03/24 04:37:44;;;;;;;;;;;;;;;9.45;47.63;101673.00;5043059;28;19928;-75
2021/03/24 04:40:15;;;;;;;;;;;;;;;9.45;47.04;101668.59;5050985;28;19933;-76
2021/03/24 04:42:44;;;;;;;;;;;;;;;9.44;46.83;101665.97;5050969;28;19947;-74
2021/03/24 04:45:17;;;;;;;;;;;;;;;9.42;47.07;101673.91;5052751;28;19928;-75
2021/03/24 04:47:51;;;;;;;;;;;;;;;9.43;46.97;101669.53;5048144;28;19933;-75
2021/03/24 04:50:22;;;;;;;;;;;;;;;9.41;46.85;101666.00;5061956;28;20550;-75
2021/03/24 04:52:50;;;;;;;;;;;;;;;9.41;46.60;101679.19;5054197;28;19925;-74
2021/03/24 04:55:35;;;;;;;;;;;;;;;9.38;47.79;101681.88;5069700;28;19957;-75
2021/03/24 04:58:03;;;;;;;;;;;;;;;9.37;47.19;101682.75;5053781;28;19929;-75
2021/03/24 05:00:33;;;;;;;;;;;;;;;9.39;47.25;101673.03;5058887;28;19929;-77
2021/03/24 05:03:04;;;;;;;;;;;;;;;9.36;47.85;101681.00;5048314;28;19933;-75
2021/03/24 05:05:34;;;;;;;;;;;;;;;9.35;47.74;101677.50;5057498;28;19924;-77
2021/03/24 05:08:06;;;;;;;;;;;;;;;9.36;47.55;101673.94;5057557;28;19928;-75
2021/03/24 05:10:35;;;;;;;;;;;;;;;9.34;47.72;101678.38;5054424;28;19933;-75
2021/03/24 05:13:07;;;;;;;;;;;;;;;9.34;47.49;101681.00;5056335;28;19935;-75
2021/03/24 05:15:38;;;;;;;;;;;;;;;9.34;47.08;101667.81;5048424;28;19947;-75
2021/03/24 05:18:07;;;;;;;;;;;;;;;9.33;46.99;101665.19;5086440;28;20007;-75
2021/03/24 05:20:37;;;;;;;;;;;;;;;9.34;47.61;101672.19;5056284;28;19963;-75
2021/03/24 05:23:06;;;;;;;;;;;;;;;9.31;47.17;101662.53;5051565;28;19928;-75
2021/03/24 05:25:44;;;;;;;;;;;;;;;9.35;47.46;101671.31;5085606;28;19992;-75
2021/03/24 05:28:14;;;;;;;;;;;;;;;9.42;45.28;101678.31;5083775;28;19932;-75
2021/03/24 05:30:44;;;;;;;;;;;;;;;9.46;45.40;101665.06;5074139;28;19967;-76
2021/03/24 05:33:15;;;;;;;;;;;;;;;9.43;45.78;101674.81;5069297;28;19925;-76
2021/03/24 05:35:45;;;;;;;;;;;;;;;9.42;46.04;101675.69;5052738;28;20560;-75
2021/03/24 05:38:19;;;;;;;;;;;;;;;9.42;46.51;101670.41;5073005;28;19939;-76
2021/03/24 05:40:57;;;;;;;;;;;;;;;9.46;46.07;101680.91;5083579;28;19929;-75
2021/03/24 05:43:32;;;;;;;;;;;;;;;9.52;44.35;101672.09;5053890;28;19987;-75
2021/03/24 05:46:06;;;;;;;;;;;;;;;9.58;43.34;101672.00;5046721;28;19925;-74
2021/03/24 05:48:54;;;;;;;;;;;;;;;9.64;41.87;101671.09;5052736;28;19935;-75
2021/03/24 05:51:35;;;;;;;;;;;;;;;9.71;41.40;101675.44;5059090;28;19933;-76
2021/03/24 05:54:26;;;;;;;;;;;;;;;9.77;40.27;101675.38;5049037;28;19944;-75
2021/03/24 05:57:02;;;;;;;;;;;;;;;9.82;40.28;101670.03;5059965;28;19979;-76
2021/03/24 05:59:38;;;;;;;;;;;;;;;9.87;39.72;101670.00;5046240;28;20799;-78
2021/03/24 06:02:10;;;;;;;;;;;;;;;9.90;38.75;101668.22;5055272;28;19932;-77
2021/03/24 06:04:44;;;;;;;;;;;;;;;9.93;38.44;101662.03;5058720;28;19924;-78
2021/03/24 06:07:40;;;;;;;;;;;;;;;9.97;38.05;101667.25;5088035;28;19961;-78
2021/03/24 06:10:43;;;;;;;;;;;;;;;9.94;38.58;101669.94;5052332;28;19935;-77
2021/03/24 06:17:34;;;;;;;;;;;;;;;9.94;39.82;101669.94;5068031;28;19967;-74
2021/03/24 06:20:09;;;;;;;;;;;;;;;9.97;40.39;101680.47;5063132;28;19948;-73
2021/03/24 06:22:44;;;;;;;;;;;;;;;10.01;40.52;101678.69;5092228;28;20000;-75
2021/03/24 06:29:31;;;;;;;;;;;;;;;10.17;40.86;101678.53;5031839;28;19936;-78
2021/03/24 06:32:48;;;;;;;;;;;;;;;10.20;41.35;101683.75;5038010;28;20000;-77
2021/03/24 06:36:00;;;;;;;;;;;;;;;10.22;41.48;101685.50;4965722;28;19994;-76
2021/03/24 06:38:45;;;;;;;;;;;;;;;10.29;41.14;101678.38;5040421;28;19960;-76
2021/03/24 06:42:00;;;;;;;;;;;;;;;10.39;41.30;101673.91;5131365;23;19933;-76
2021/03/24 06:49:05;;;;;;;;;;;;;;;;;;;;;
2021/03/24 06:52:44;;;;;;;;;;;;;;;11.28;40.06;101672.69;5056073;23;19932;-80
2021/03/24 06:55:34;;;;;;;;;;;;;;;11.47;40.07;101677.69;5034751;28;20294;-79
2021/03/24 06:58:20;;;;;;;;;;;;;;;11.78;39.37;101670.06;5036514;28;20386;-78
2021/03/24 07:01:03;;;;;;;;;;;;;;;11.92;39.06;101679.56;5055356;28;19964;-79
2021/03/24 07:03:51;;;;;;;;;;;;;;;12.19;38.62;101688.81;5055903;28;20400;-76
2021/03/24 07:06:49;;;;;;;;;;;;;;;12.31;38.50;101685.03;5055393;28;20015;-79
2021/03/24 07:12:42;;;;;;;;;;;;;;;12.69;38.21;101694.00;4990981;28;19961;-80
2021/03/24 07:15:28;;;;;;;;;;;;;;;12.84;38.01;101687.47;4993416;28;20445;-80
2021/03/24 07:18:22;;;;;;;;;;;;;;;13.01;37.91;101700.38;5035141;28;19956;-80
2021/03/24 07:21:03;;;;;;;;;;;;;;;13.20;37.44;101684.06;5054434;28;20391;-80
2021/03/24 07:23:44;;;;;;;;;;;;;;;13.43;37.11;101695.03;5054313;28;20370;-81
2021/03/24 07:30:04;;;;;;;;;;;;;;;14.18;36.23;101696.66;5055179;28;19956;-80
2021/03/24 07:32:41;;;;;;;;;;;;;;;14.59;35.17;101697.28;5054831;28;20385;-80
2021/03/24 07:39:17;;;;;;;;;;;;;;;14.73;35.41;101707.53;5055032;28;19927;-81
2021/03/24 07:42:12;;;;;;;;;;;;;;;14.59;35.72;101707.94;5054578;28;19971;-79
2021/03/24 07:45:06;;;;;;;;;;;;;;;14.60;36.06;101700.81;5054763;28;20439;-80
2021/03/24 07:47:44;;;;;;;;;;;;;;;14.60;35.97;101708.78;5054641;28;20019;-80
2021/03/24 07:54:19;;;;;;;;;;;;;;;14.79;35.85;101714.50;5053769;28;19974;-81
2021/03/24 08:39:10;;;;;;;;;;;;;;;15.49;35.53;101739.88;4873417;24;20429;-74
2021/03/24 08:42:45;;;;;;;;;;;;;;;;;;;;;
2021/03/24 08:46:11;;;;;;;;;;;;;;;15.65;35.19;101726.91;4767980;29;19929;-74
2021/03/24 08:52:09;;;;;;;;;;;;;;;15.71;35.22;101728.53;4802999;29;19961;-74
2021/03/24 08:55:27;;;;;;;;;;;;;;;15.67;35.41;101722.41;4825331;29;19975;-74
2021/03/24 08:58:27;;;;;;;;;;;;;;;15.67;35.64;101726.88;4825949;29;20351;-74
2021/03/24 09:17:39;;;;;;;;;;;;;;;16.67;34.03;101715.34;5306014;24;19929;-73
2021/03/24 09:23:45;;;;;;;;;;;;;;;18.38;31.13;101712.00;4839879;29;19985;-75
2021/03/24 09:26:26;;;;;;;;;;;;;;;18.84;30.46;101709.03;4841863;29;20462;-74
2021/03/24 09:29:11;;;;;;;;;;;;;;;19.16;30.06;101696.81;4841601;29;19932;-74
2021/03/24 09:32:03;;;;;;;;;;;;;;;19.52;29.53;101687.88;4841533;29;20409;-74
2021/03/24 09:34:44;;;;;;;;;;;;;;;20.64;27.94;101690.16;4841962;29;20394;-74
2021/03/24 09:37:16;;;;;;;;;;;;;;;21.30;27.10;101688.28;4825527;29;20015;-75
2021/03/24 09:39:48;;;;;;;;;;;;;;;22.20;25.90;101686.56;4841303;29;20392;-75
2021/03/24 09:42:19;;;;;;;;;;;;;;;22.60;25.43;101686.78;4841579;29;20023;-74
2021/03/24 09:44:51;;;;;;;;;;;;;;;23.11;24.86;101688.03;4841296;29;20306;-75
2021/03/24 09:47:27;;;;;;;;;;;;;;;23.79;24.04;101686.25;4825194;29;20394;-75
2021/03/24 09:49:59;;;;;;;;;;;;;;;24.79;22.90;101694.59;4841425;29;20386;-75
2021/03/24 09:52:32;;;;;;;;;;;;;;;24.85;23.04;101686.88;4841790;29;19984;-75
2021/03/24 09:55:25;;;;;;;;;;;;;;;24.75;23.05;101680.41;4841476;29;19928;-75
2021/03/24 09:58:42;;;;;;;;;;;;;;;25.35;22.67;101686.00;4766921;30;19953;-75
2021/03/24 10:01:25;;;;;;;;;;;;;;;25.33;22.96;101693.31;4834550;29;20347;-77
2021/03/24 10:04:01;;;;;;;;;;;;;;;25.57;22.71;101684.34;4842005;29;20240;-77
2021/03/24 10:06:35;;;;;;;;;;;;;;;25.45;22.67;101687.03;4841444;29;19928;-75
2021/03/24 10:09:06;;;;;;;;;;;;;;;25.49;22.91;101674.09;4841591;29;20305;-77
2021/03/24 10:11:43;;;;;;;;;;;;;;;25.40;22.99;101681.09;4840925;29;19928;-77
2021/03/24 10:14:18;;;;;;;;;;;;;;;25.60;22.97;101684.13;4841623;29;20263;-77
2021/03/24 10:16:50;;;;;;;;;;;;;;;25.43;23.17;101688.13;4841495;29;20351;-77
2021/03/24 10:19:23;;;;;;;;;;;;;;;25.75;22.96;101682.91;4841884;29;19929;-77
2021/03/24 10:21:55;;;;;;;;;;;;;;;25.78;22.95;101677.28;4841610;29;20494;-76
2021/03/24 10:24:28;;;;;;;;;;;;;;;26.72;21.62;101674.44;4841142;29;19929;-77
2021/03/24 10:27:03;;;;;;;;;;;;;;;26.63;21.93;101675.16;4841342;29;20371;-77
2021/03/24 10:30:01;;;;;;;;;;;;;;;27.17;21.34;101670.75;4841440;29;20405;-77
2021/03/24 10:32:34;;;;;;;;;;;;;;;26.77;21.84;101674.94;4841862;29;19936;-77
2021/03/24 10:35:35;;;;;;;;;;;;;;;;;;;;;
2021/03/24 10:39:12;;;;;;;;;;;;;;;25.74;23.62;101664.09;4842221;29;20333;-77
2021/03/24 10:42:33;;;;;;;;;;;;;;;26.16;22.89;101657.19;4841777;29;20393;-77
2021/03/24 10:45:05;;;;;;;;;;;;;;;25.96;23.16;101665.97;4841568;29;20422;-77
2021/03/24 10:47:39;;;;;;;;;;;;;;;25.80;23.26;101666.31;4841468;29;20270;-77
2021/03/24 10:50:17;;;;;;;;;;;;;;;25.83;23.39;101671.50;4841393;29;20311;-77
2021/03/24 10:53:01;;;;;;;;;;;;;;;25.29;24.29;101670.16;4841255;29;20390;-77
2021/03/24 10:55:58;;;;;;;;;;;;;;;25.21;24.25;101669.88;4840598;29;20453;-77
2021/03/24 10:58:42;;;;;;;;;;;;;;;24.80;25.03;101663.88;4844613;29;20283;-77
2021/03/24 11:01:15;;;;;;;;;;;;;;;24.83;24.77;101653.69;4844878;29;20294;-76
2021/03/24 11:03:56;;;;;;;;;;;;;;;25.22;24.19;101649.97;4845153;29;20046;-77
2021/03/24 11:13:28;;;;;;;;;;;;;;;25.41;24.37;101658.44;4844383;29;20306;-77
2021/03/24 11:16:08;;;;;;;;;;;;;;;25.10;24.79;101649.03;4844479;29;20035;-77
2021/03/24 11:18:42;;;;;;;;;;;;;;;24.65;25.44;101645.06;4844221;29;20381;-77
2021/03/24 11:25:04;;;;;;;;;;;;;;;24.23;25.71;101646.28;4844394;29;19930;-77
2021/03/24 11:27:37;;;;;;;;;;;;;;;24.04;26.04;101637.63;4844455;29;20280;-77
2021/03/24 11:30:21;;;;;;;;;;;;;;;24.08;26.10;101635.59;4843878;29;19964;-78
2021/03/24 11:33:00;;;;;;;;;;;;;;;24.25;26.01;101644.34;4844004;29;19935;-77
2021/03/24 11:35:58;;;;;;;;;;;;;;;24.72;25.41;101641.94;4843530;29;20266;-77
2021/03/24 11:38:39;;;;;;;;;;;;;;;24.91;24.93;101639.56;4843426;29;20290;-77
2021/03/24 11:41:10;;;;;;;;;;;;;;;24.90;24.83;101643.28;4843734;29;19928;-77
2021/03/24 11:43:43;;;;;;;;;;;;;;;25.04;24.74;101642.22;4843772;29;19935;-77
2021/03/24 11:46:25;;;;;;;;;;;;;;;25.17;24.51;101628.63;4843701;29;19932;-77
2021/03/24 11:49:04;;;;;;;;;;;;;;;24.93;24.82;101631.34;4843484;29;19944;-77
2021/03/24 11:58:47;;;;;;;;;;;;;;;25.65;23.92;101623.19;4842541;29;20298;-77
2021/03/24 12:01:25;;;;;;;;;;;;;;;25.82;23.75;101619.16;4842143;29;19997;-77
2021/03/24 12:04:08;;;;;;;;;;;;;;;25.41;24.48;101625.06;4842937;29;20220;-77
2021/03/24 12:06:48;;;;;;;;;;;;;;;25.24;24.63;101631.75;4913893;24;20394;-78
2021/03/24 12:09:21;;;;;;;;;;;;;;;24.96;25.09;101615.72;4843036;29;20405;-78
2021/03/24 12:11:51;;;;;;;;;;;;;;;24.84;25.29;101619.38;4843225;29;20414;-78
2021/03/24 12:14:24;;;;;;;;;;;;;;;24.65;25.41;101620.72;4842981;29;20331;-78
2021/03/24 12:20:58;;;;;;;;;;;;;;;24.46;25.85;101614.91;4843250;29;19979;-78
2021/03/24 12:23:29;;;;;;;;;;;;;;;24.55;25.65;101616.94;4842976;29;20453;-78
2021/03/24 12:26:00;;;;;;;;;;;;;;;24.72;25.64;101612.19;4826367;29;20399;-78
2021/03/24 12:28:33;;;;;;;;;;;;;;;24.60;25.84;101605.75;4843122;29;20361;-79
2021/03/24 12:35:18;;;;;;;;;;;;;;;24.68;25.75;101615.09;4842724;29;20397;-79
2021/03/24 12:37:51;;;;;;;;;;;;;;;24.38;25.87;101610.06;4843061;29;20375;-78
2021/03/24 12:40:23;;;;;;;;;;;;;;;24.28;26.22;101606.28;4842334;29;20394;-78
2021/03/24 12:43:39;;;;;;;;;;;;;;;24.09;26.54;101602.19;4842721;29;20301;-78
2021/03/24 12:46:11;;;;;;;;;;;;;;;24.06;26.52;101610.53;4842166;29;20310;-78
2021/03/24 12:48:47;;;;;;;;;;;;;;;24.10;26.52;101595.81;4842684;29;19985;-78
2021/03/24 12:51:21;;;;;;;;;;;;;;;24.10;26.37;101592.25;4842178;29;19929;-78
2021/03/24 12:53:53;;;;;;;;;;;;;;;24.44;25.82;101597.91;4842025;29;20240;-78
2021/03/24 12:56:55;;;;;;;;;;;;;;;24.55;25.77;101594.44;4842438;29;20302;-78
2021/03/24 12:59:35;;;;;;;;;;;;;;;24.50;25.89;101598.31;4826192;29;19976;-78
2021/03/24 13:08:53;;;;;;;;;;;;;;;23.75;27.05;101587.47;4769327;30;19977;-78
2021/03/24 13:11:31;;;;;;;;;;;;;;;23.71;27.33;101594.94;4770450;30;19930;-78
2021/03/24 13:14:07;;;;;;;;;;;;;;;23.71;27.18;101586.81;4769657;30;20302;-78
2021/03/24 13:16:39;;;;;;;;;;;;;;;23.38;27.67;101591.75;4769687;30;19940;-78
2021/03/24 13:19:19;;;;;;;;;;;;;;;23.16;28.05;101595.03;4769511;30;19940;-78
2021/03/24 13:21:53;;;;;;;;;;;;;;;22.93;28.30;101603.78;4769672;30;20307;-78
2021/03/24 13:24:33;;;;;;;;;;;;;;;22.90;28.38;101596.75;4769474;30;19933;-78
2021/03/24 13:31:01;;;;;;;;;;;;;;;22.60;28.85;101608.59;4769911;30;19932;-78
2021/03/24 13:33:38;;;;;;;;;;;;;;;22.65;28.67;101605.59;4769989;30;20057;-78
2021/03/24 13:36:12;;;;;;;;;;;;;;;22.38;29.17;101599.19;4769756;30;20276;-78
2021/03/24 13:38:47;;;;;;;;;;;;;;;22.05;29.65;101603.03;4769537;30;19965;-78
2021/03/24 13:45:18;;;;;;;;;;;;;;;21.83;29.98;101587.31;4769538;30;19948;-78
2021/03/24 13:47:52;;;;;;;;;;;;;;;21.79;30.20;101590.31;4768191;30;20362;-77
2021/03/24 14:01:20;;;;;;;;;;;;;;;20.91;31.58;101577.53;4769645;30;19932;-78
2021/03/24 14:03:55;;;;;;;;;;;;;;;20.92;31.69;101573.88;4769177;30;20303;-78
2021/03/24 14:06:30;;;;;;;;;;;;;;;20.84;31.87;101578.81;4795132;24;20324;-78
2021/03/24 14:09:03;;;;;;;;;;;;;;;20.66;32.11;101565.47;4841079;29;19928;-78
2021/03/24 14:18:32;;;;;;;;;;;;;;;20.77;31.83;101570.25;4841180;29;20403;-78
2021/03/24 14:21:10;;;;;;;;;;;;;;;20.81;31.59;101571.81;4841279;29;19928;-77
2021/03/24 14:23:50;;;;;;;;;;;;;;;20.88;31.45;101570.50;4840869;29;19932;-78
2021/03/24 14:30:20;;;;;;;;;;;;;;;20.57;31.88;101558.78;4841477;29;19931;-78
2021/03/24 14:36:36;;;;;;;;;;;;;;;20.36;32.33;101554.63;4844587;29;19996;-78
2021/03/24 14:39:11;;;;;;;;;;;;;;;20.46;32.13;101557.66;4844344;29;20354;-78
2021/03/24 14:41:44;;;;;;;;;;;;;;;20.34;32.31;101554.72;4844369;29;20027;-77
2021/03/24 14:44:23;;;;;;;;;;;;;;;20.13;32.59;101556.78;4844835;29;19936;-77
2021/03/24 14:47:16;;;;;;;;;;;;;;;19.94;32.96;101556.03;4844796;29;20408;-77
2021/03/24 14:50:03;;;;;;;;;;;;;;;19.84;33.17;101552.97;4845228;29;19935;-77
2021/03/24 14:56:27;;;;;;;;;;;;;;;19.70;33.26;101545.66;4844643;29;19930;-78
2021/03/24 14:59:05;;;;;;;;;;;;;;;19.70;33.29;101549.19;4844785;29;19935;-77
2021/03/24 15:12:48;;;;;;;;;;;;;;;19.25;36.23;101550.63;4863650;24;20025;-77
2021/03/24 15:29:25;;;;;;;;;;;;;;;19.04;37.61;101541.88;4987940;24;20319;-84
2021/03/24 15:31:58;;;;;;;;;;;;;;;18.95;37.94;101534.28;5396012;24;19953;-71
2021/03/24 15:34:32;;;;;;;;;;;;;;;19.11;38.91;101547.78;4816393;29;19932;-70
2021/03/24 15:37:13;;;;;;;;;;;;;;;19.29;39.66;101537.94;4823455;29;19937;-71
2021/03/24 15:39:45;;;;;;;;;;;;;;;19.34;39.88;101541.25;4824897;29;19933;-72
2021/03/24 15:42:19;;;;;;;;;;;;;;;19.35;39.88;101546.53;4829371;29;20409;-72
2021/03/24 15:44:56;;;;;;;;;;;;;;;19.35;40.17;101532.25;4826815;29;19944;-73
2021/03/24 15:47:29;;;;;;;;;;;;;;;19.32;40.69;101533.28;4822215;29;19933;-72
2021/03/24 15:50:11;;;;;;;;;;;;;;;19.27;40.12;101539.84;4833164;29;19943;-71
2021/03/24 15:52:38;;;;;;;;;;;;;;;19.20;40.73;101532.09;4814357;29;19996;-70
2021/03/24 15:55:13;;;;;;;;;;;;;;;19.17;40.62;101531.38;4828246;29;19973;-71
2021/03/24 15:57:52;;;;;;;;;;;;;;;19.14;40.80;101536.91;4822013;29;19949;-71
2021/03/24 16:00:33;;;;;;;;;;;;;;;19.14;41.27;101531.56;4820536;29;19948;-74
2021/03/24 16:03:14;;;;;;;;;;;;;;;19.16;40.61;101538.56;4824192;29;20384;-73
2021/03/24 16:05:52;;;;;;;;;;;;;;;19.10;40.58;101538.03;4821752;29;19928;-73
2021/03/24 16:08:29;;;;;;;;;;;;;;;19.01;40.50;101536.66;4823533;29;20394;-74
2021/03/24 16:11:27;;;;;;;;;;;;;;;18.99;40.76;101541.22;4838099;29;20024;-73
2021/03/24 16:14:00;;;;;;;;;;;;;;;18.98;40.90;101540.38;4825497;29;19987;-73
2021/03/24 16:16:30;;;;;;;;;;;;;;;18.98;40.96;101542.19;4822543;29;19929;-72
2021/03/24 16:19:09;;;;;;;;;;;;;;;19.00;40.43;101543.84;4823767;29;19933;-72
2021/03/24 16:21:42;;;;;;;;;;;;;;;19.06;40.35;101540.84;4822696;29;19936;-70
2021/03/24 16:24:14;;;;;;;;;;;;;;;19.08;40.76;101540.75;4822293;29;19936;-72
2021/03/24 16:26:57;;;;;;;;;;;;;;;19.12;40.88;101553.09;4818187;29;19941;-71
2021/03/24 16:29:27;;;;;;;;;;;;;;;19.14;40.79;101548.50;4815243;29;19932;-71
2021/03/24 16:32:18;;;;;;;;;;;;;;;19.01;42.38;101550.06;4818591;29;20768;-70
2021/03/24 16:34:59;;;;;;;;;;;;;;;18.86;41.39;101546.31;4825533;29;19937;-74
2021/03/24 16:37:37;;;;;;;;;;;;;;;18.12;39.78;101560.56;4817702;29;19937;-76
2021/03/24 16:40:19;;;;;;;;;;;;;;;16.85;39.16;101548.13;4822398;29;20046;-71
2021/03/24 16:43:04;;;;;;;;;;;;;;;16.24;39.86;101563.00;4825711;29;19936;-73